createdAt,value
2023-01-01T00:00:50.961Z,0
2023-01-01T00:10:28.357Z,0
2023-01-01T00:20:06.161Z,0
2023-01-01T00:29:43.475Z,0
2023-01-01T00:39:20.887Z,0
2023-01-01T00:48:57.923Z,0
2023-01-01T00:58:35.244Z,0
2023-01-01T01:08:12.814Z,0
2023-01-01T01:17:50.114Z,0
2023-01-01T01:27:27.371Z,0
2023-01-01T01:37:04.366Z,0
2023-01-01T01:46:41.540Z,0
2023-01-01T01:56:18.531Z,0
2023-01-01T02:05:55.334Z,0
2023-01-01T02:15:32.284Z,0
2023-01-01T02:25:09.311Z,0
2023-01-01T02:34:46.731Z,0
2023-01-01T02:44:23.532Z,0
2023-01-01T02:54:00.898Z,0
2023-01-01T03:03:38.461Z,0
2023-01-01T03:13:16.084Z,0
2023-01-01T03:22:53.587Z,0
2023-01-01T03:32:31.065Z,0
2023-01-01T03:42:08.536Z,0
2023-01-01T03:51:46.076Z,0
2023-01-01T04:01:23.073Z,0
2023-01-01T04:11:00.200Z,0
2023-01-01T04:20:38.131Z,0
2023-01-01T04:30:15.890Z,0
2023-01-01T04:39:53.387Z,0
2023-01-01T04:49:31.256Z,0
2023-01-01T04:59:09.337Z,0
2023-01-01T05:08:47.495Z,0
2023-01-01T05:18:25.284Z,0
2023-01-01T05:28:02.598Z,0
2023-01-01T05:37:40.055Z,0
2023-01-01T05:47:17.688Z,0
2023-01-01T05:56:54.985Z,0
2023-01-01T06:06:32.563Z,0
2023-01-01T06:16:10.243Z,0
2023-01-01T06:25:47.459Z,0
2023-01-01T06:35:24.985Z,0
2023-01-01T06:45:02.611Z,0
2023-01-01T06:54:39.924Z,0
2023-01-01T07:04:17.094Z,0
2023-01-01T07:13:53.799Z,5.63
2023-01-01T07:23:31.186Z,11.25
2023-01-01T07:33:08.566Z,16.88
2023-01-01T07:42:46.028Z,33.75
2023-01-01T07:52:23.831Z,56.25
2023-01-01T08:02:01.655Z,67.5
2023-01-01T08:11:39.709Z,78.75
2023-01-01T08:21:17.826Z,61.88
2023-01-01T08:30:55.548Z,118.13
2023-01-01T08:40:33.540Z,112.5
2023-01-01T08:50:11.124Z,112.5
2023-01-01T08:59:48.853Z,157.5
2023-01-01T09:09:31.256Z,174.38
2023-01-01T09:19:04.546Z,180
2023-01-01T09:28:42.572Z,202.5
2023-01-01T09:38:20.542Z,196.88
2023-01-01T09:47:58.244Z,230.63
2023-01-01T09:57:35.895Z,241.88
2023-01-01T10:07:13.926Z,264.38
2023-01-01T10:16:52.268Z,320.63
2023-01-01T10:26:30.978Z,382.5
2023-01-01T10:36:09.354Z,388.13
2023-01-01T10:45:47.735Z,348.75
2023-01-01T10:55:25.325Z,270
2023-01-01T11:05:05.422Z,151.88
2023-01-01T11:14:38.775Z,270
2023-01-01T11:24:16.875Z,326.25
2023-01-01T11:33:54.756Z,286.88
2023-01-01T11:43:11.942Z,236.25
2023-01-01T11:52:48.594Z,202.5
2023-01-01T12:02:26.494Z,281.25
2023-01-01T12:12:04.768Z,382.5
2023-01-01T12:21:45.163Z,286.88
2023-01-01T12:31:20.019Z,270
2023-01-01T12:40:57.070Z,281.25
2023-01-01T12:50:34.491Z,281.25
2023-01-01T13:00:13.296Z,483.75
2023-01-01T13:09:53.549Z,658.13
2023-01-01T13:19:31.267Z,230.63
2023-01-01T13:29:05.403Z,163.13
2023-01-01T13:38:41.309Z,151.88
2023-01-01T13:48:18.335Z,135
2023-01-01T13:57:55.665Z,101.25
2023-01-01T14:07:50.514Z,84.38
2023-01-01T14:16:42.293Z,78.75
2023-01-01T14:26:19.485Z,56.25
2023-01-01T14:35:56.279Z,28.13
2023-01-01T14:45:33.570Z,22.5
2023-01-01T14:55:09.910Z,16.88
2023-01-01T15:04:46.978Z,5.63
2023-01-01T15:14:23.656Z,5.63
2023-01-01T15:24:00.421Z,0
2023-01-01T15:33:37.424Z,0
2023-01-01T15:43:15.402Z,0
2023-01-01T15:52:55.576Z,0
2023-01-01T16:02:29.319Z,0
2023-01-01T16:12:06.415Z,0
2023-01-01T16:21:43.939Z,0
2023-01-01T16:31:21.286Z,0
2023-01-01T16:40:58.451Z,0
2023-01-01T16:50:35.450Z,0
2023-01-01T17:00:12.675Z,0
2023-01-01T17:09:49.975Z,0
2023-01-01T17:19:27.032Z,0
2023-01-01T17:29:04.254Z,0
2023-01-01T17:38:41.643Z,0
2023-01-01T17:48:19.187Z,0
2023-01-01T17:57:56.501Z,0
2023-01-01T18:07:33.769Z,0
2023-01-01T18:17:11.007Z,0
2023-01-01T18:26:48.214Z,0
2023-01-01T18:36:26.207Z,0
2023-01-01T18:46:03.226Z,0
2023-01-01T18:55:40.114Z,0
2023-01-01T19:05:17.495Z,0
2023-01-01T19:14:54.980Z,0
2023-01-01T19:24:32.239Z,0
2023-01-01T19:34:09.506Z,0
2023-01-01T19:43:51.649Z,0
2023-01-01T19:53:24.246Z,0
2023-01-01T20:03:26.222Z,0
2023-01-01T20:12:38.482Z,0
2023-01-01T20:22:16.012Z,0
2023-01-01T20:31:53.583Z,0
2023-01-01T20:41:30.139Z,0
2023-01-01T20:51:07.137Z,0
2023-01-01T21:00:43.662Z,0
2023-01-01T21:10:19.947Z,0
2023-01-01T21:19:56.434Z,0
2023-01-01T21:29:34.060Z,0
2023-01-01T21:39:11.264Z,0
2023-01-01T21:48:48.863Z,0
2023-01-01T21:58:25.621Z,0
2023-01-01T22:08:02.918Z,0
2023-01-01T22:17:40.324Z,0
2023-01-01T22:27:17.152Z,0
2023-01-01T22:36:54.384Z,0
2023-01-01T22:46:32.387Z,0
2023-01-01T22:56:10.236Z,0
2023-01-01T23:05:49.535Z,0
2023-01-01T23:15:28.554Z,0
2023-01-01T23:25:06.839Z,0
2023-01-01T23:34:44.623Z,0
2023-01-01T23:44:22.945Z,0
2023-01-01T23:54:00.513Z,0
